首页
METAR-TAF:

METAR-TAF

机场 :

奧利安, 紐約州, 美国

纬度: 42-14-28N, 经度: 078-22-17W, 海拔: 651米

当前天气观测

该预报发布于30分钟前的08:55 UTC
风速5节,风向南转西南
温度 16°C
湿度 100%
气压 1017 hPa
能見度: 8.0公里
散云层高于200英尺
轻雾

METAR: KOLE 180855Z AUTO 21005KT 5SM BR SCT002 16/16 A3004 RMK AO2 LTG DSNT NW

时间: 05:25 (09:25 UTC)


TAF: 丢失

超过4000个机场的气象观测和天气预报(METAR&TAF报告)。

可查询的气象台以黄色和红色小点在地图上表示。

将鼠标移到小点上方,可查看气象台名称。

然后点击查看天气观测和预报。

如需切换地图:点击带黑十字的绿色按钮放大地图;点击带横线的绿色按钮缩小地图;或者点击绿色箭头查看邻近地区的地图。


METAR-TAF: